sensor_id;sensor_type;location;lat;lon;timestamp;P1;durP1;ratioP1;P2;durP2;ratioP2
12956;SDS011;6543;48.836;10.092;2023-03-26T00:01:23;4.23;;;1.10;;
12956;SDS011;6543;48.836;10.092;2023-03-26T00:03:51;9.77;;;1.30;;
12956;SDS011;6543;48.836;10.092;2023-03-26T00:06:22;3.20;;;1.33;;
12956;SDS011;6543;48.836;10.092;2023-03-26T00:08:51;3.33;;;1.13;;
12956;SDS011;6543;48.836;10.092;2023-03-26T00:11:19;5.37;;;1.07;;
12956;SDS011;6543;48.836;10.092;2023-03-26T00:13:47;3.57;;;1.50;;
12956;SDS011;6543;48.836;10.092;2023-03-26T00:16:19;4.50;;;1.87;;
12956;SDS011;6543;48.836;10.092;2023-03-26T00:18:46;13.73;;;7.97;;
12956;SDS011;6543;48.836;10.092;2023-03-26T00:21:16;5.73;;;2.87;;
12956;SDS011;6543;48.836;10.092;2023-03-26T00:23:45;6.97;;;3.10;;
12956;SDS011;6543;48.836;10.092;2023-03-26T00:26:13;6.47;;;2.83;;
12956;SDS011;6543;48.836;10.092;2023-03-26T00:28:41;9.80;;;4.53;;
12956;SDS011;6543;48.836;10.092;2023-03-26T00:31:10;6.93;;;1.37;;
12956;SDS011;6543;48.836;10.092;2023-03-26T00:33:40;5.90;;;0.83;;
12956;SDS011;6543;48.836;10.092;2023-03-26T00:36:08;4.53;;;1.10;;
12956;SDS011;6543;48.836;10.092;2023-03-26T00:38:38;4.13;;;1.23;;
12956;SDS011;6543;48.836;10.092;2023-03-26T00:41:09;4.03;;;1.20;;
12956;SDS011;6543;48.836;10.092;2023-03-26T00:43:41;5.63;;;2.20;;
12956;SDS011;6543;48.836;10.092;2023-03-26T00:46:09;5.33;;;1.53;;
12956;SDS011;6543;48.836;10.092;2023-03-26T00:48:36;4.20;;;1.50;;
12956;SDS011;6543;48.836;10.092;2023-03-26T00:51:08;6.47;;;1.20;;
12956;SDS011;6543;48.836;10.092;2023-03-26T00:53:35;4.27;;;1.70;;
12956;SDS011;6543;48.836;10.092;2023-03-26T00:56:06;2.50;;;0.97;;
12956;SDS011;6543;48.836;10.092;2023-03-26T00:58:34;3.17;;;1.33;;
12956;SDS011;6543;48.836;10.092;2023-03-26T01:01:03;3.73;;;1.10;;
12956;SDS011;6543;48.836;10.092;2023-03-26T01:03:32;4.53;;;1.40;;
12956;SDS011;6543;48.836;10.092;2023-03-26T01:06:00;5.83;;;1.20;;
12956;SDS011;6543;48.836;10.092;2023-03-26T01:08:30;3.63;;;1.43;;
12956;SDS011;6543;48.836;10.092;2023-03-26T01:11:00;3.83;;;1.67;;
12956;SDS011;6543;48.836;10.092;2023-03-26T01:13:32;4.83;;;1.50;;
12956;SDS011;6543;48.836;10.092;2023-03-26T01:16:01;5.87;;;1.40;;
12956;SDS011;6543;48.836;10.092;2023-03-26T01:18:29;1.50;;;0.80;;
12956;SDS011;6543;48.836;10.092;2023-03-26T01:21:05;6.67;;;1.60;;
12956;SDS011;6543;48.836;10.092;2023-03-26T01:23:41;3.37;;;1.37;;
12956;SDS011;6543;48.836;10.092;2023-03-26T01:26:18;5.87;;;1.50;;
12956;SDS011;6543;48.836;10.092;2023-03-26T01:28:57;4.17;;;1.60;;
12956;SDS011;6543;48.836;10.092;2023-03-26T01:31:29;3.23;;;1.43;;
12956;SDS011;6543;48.836;10.092;2023-03-26T01:34:02;3.70;;;1.30;;
12956;SDS011;6543;48.836;10.092;2023-03-26T01:36:37;4.03;;;1.60;;
12956;SDS011;6543;48.836;10.092;2023-03-26T01:39:09;6.03;;;1.30;;
12956;SDS011;6543;48.836;10.092;2023-03-26T01:41:47;7.67;;;1.47;;
12956;SDS011;6543;48.836;10.092;2023-03-26T01:44:19;10.37;;;1.47;;
12956;SDS011;6543;48.836;10.092;2023-03-26T01:46:52;2.67;;;1.20;;
12956;SDS011;6543;48.836;10.092;2023-03-26T01:49:20;4.03;;;1.97;;
12956;SDS011;6543;48.836;10.092;2023-03-26T01:51:49;5.47;;;1.43;;
12956;SDS011;6543;48.836;10.092;2023-03-26T01:54:17;4.20;;;1.40;;
12956;SDS011;6543;48.836;10.092;2023-03-26T01:56:52;4.83;;;1.30;;
12956;SDS011;6543;48.836;10.092;2023-03-26T01:59:31;7.23;;;2.17;;
12956;SDS011;6543;48.836;10.092;2023-03-26T02:02:13;5.03;;;1.40;;
12956;SDS011;6543;48.836;10.092;2023-03-26T02:04:45;5.17;;;1.53;;
12956;SDS011;6543;48.836;10.092;2023-03-26T02:07:19;5.00;;;1.83;;
12956;SDS011;6543;48.836;10.092;2023-03-26T02:09:49;6.77;;;1.30;;
12956;SDS011;6543;48.836;10.092;2023-03-26T02:12:21;3.37;;;1.50;;
12956;SDS011;6543;48.836;10.092;2023-03-26T02:14:50;8.00;;;2.03;;
12956;SDS011;6543;48.836;10.092;2023-03-26T02:17:17;4.93;;;1.67;;
12956;SDS011;6543;48.836;10.092;2023-03-26T02:19:48;4.40;;;1.47;;
12956;SDS011;6543;48.836;10.092;2023-03-26T02:22:15;6.97;;;1.57;;
12956;SDS011;6543;48.836;10.092;2023-03-26T02:24:43;4.67;;;1.37;;
12956;SDS011;6543;48.836;10.092;2023-03-26T02:27:10;3.97;;;1.13;;
12956;SDS011;6543;48.836;10.092;2023-03-26T02:29:39;6.17;;;1.47;;
12956;SDS011;6543;48.836;10.092;2023-03-26T02:32:06;12.07;;;1.30;;
12956;SDS011;6543;48.836;10.092;2023-03-26T02:34:37;2.47;;;1.10;;
12956;SDS011;6543;48.836;10.092;2023-03-26T02:37:04;4.70;;;1.40;;
12956;SDS011;6543;48.836;10.092;2023-03-26T02:39:32;4.50;;;1.37;;
12956;SDS011;6543;48.836;10.092;2023-03-26T02:42:00;3.90;;;1.60;;
12956;SDS011;6543;48.836;10.092;2023-03-26T02:44:27;4.60;;;1.37;;
12956;SDS011;6543;48.836;10.092;2023-03-26T02:46:55;7.60;;;1.30;;
12956;SDS011;6543;48.836;10.092;2023-03-26T02:49:22;3.77;;;1.37;;
12956;SDS011;6543;48.836;10.092;2023-03-26T02:51:50;4.77;;;1.60;;
12956;SDS011;6543;48.836;10.092;2023-03-26T02:54:20;6.70;;;2.37;;
12956;SDS011;6543;48.836;10.092;2023-03-26T02:56:47;5.63;;;1.60;;
12956;SDS011;6543;48.836;10.092;2023-03-26T02:59:14;6.27;;;1.47;;
12956;SDS011;6543;48.836;10.092;2023-03-26T03:01:40;6.90;;;1.50;;
12956;SDS011;6543;48.836;10.092;2023-03-26T03:04:09;5.93;;;1.67;;
12956;SDS011;6543;48.836;10.092;2023-03-26T03:06:36;9.83;;;2.00;;
12956;SDS011;6543;48.836;10.092;2023-03-26T03:09:04;7.67;;;1.40;;
12956;SDS011;6543;48.836;10.092;2023-03-26T03:11:32;4.07;;;1.70;;
12956;SDS011;6543;48.836;10.092;2023-03-26T03:14:00;4.90;;;1.50;;
12956;SDS011;6543;48.836;10.092;2023-03-26T03:16:27;6.90;;;1.70;;
12956;SDS011;6543;48.836;10.092;2023-03-26T03:18:54;6.57;;;1.60;;
12956;SDS011;6543;48.836;10.092;2023-03-26T03:21:23;4.70;;;1.80;;
12956;SDS011;6543;48.836;10.092;2023-03-26T03:23:51;7.07;;;1.57;;
12956;SDS011;6543;48.836;10.092;2023-03-26T03:26:19;4.33;;;2.10;;
12956;SDS011;6543;48.836;10.092;2023-03-26T03:28:52;9.43;;;2.07;;
12956;SDS011;6543;48.836;10.092;2023-03-26T03:31:19;7.07;;;1.77;;
12956;SDS011;6543;48.836;10.092;2023-03-26T03:33:46;7.80;;;1.83;;
12956;SDS011;6543;48.836;10.092;2023-03-26T03:36:14;7.53;;;1.53;;
12956;SDS011;6543;48.836;10.092;2023-03-26T03:38:43;10.77;;;1.77;;
12956;SDS011;6543;48.836;10.092;2023-03-26T03:41:10;9.30;;;2.03;;
12956;SDS011;6543;48.836;10.092;2023-03-26T03:43:37;4.90;;;1.60;;
12956;SDS011;6543;48.836;10.092;2023-03-26T03:46:04;7.17;;;2.23;;
12956;SDS011;6543;48.836;10.092;2023-03-26T03:48:31;11.20;;;2.07;;
12956;SDS011;6543;48.836;10.092;2023-03-26T03:51:02;6.47;;;1.83;;
12956;SDS011;6543;48.836;10.092;2023-03-26T03:53:30;5.23;;;1.63;;
12956;SDS011;6543;48.836;10.092;2023-03-26T03:56:02;6.07;;;1.70;;
12956;SDS011;6543;48.836;10.092;2023-03-26T03:58:34;4.70;;;1.50;;
12956;SDS011;6543;48.836;10.092;2023-03-26T04:01:01;8.53;;;1.87;;
12956;SDS011;6543;48.836;10.092;2023-03-26T04:03:28;9.57;;;1.90;;
12956;SDS011;6543;48.836;10.092;2023-03-26T04:05:55;4.57;;;1.70;;
12956;SDS011;6543;48.836;10.092;2023-03-26T04:08:23;4.60;;;1.10;;
12956;SDS011;6543;48.836;10.092;2023-03-26T04:10:50;5.80;;;1.90;;
12956;SDS011;6543;48.836;10.092;2023-03-26T04:13:18;5.90;;;1.77;;
12956;SDS011;6543;48.836;10.092;2023-03-26T04:15:45;4.37;;;2.07;;
12956;SDS011;6543;48.836;10.092;2023-03-26T04:18:12;20.17;;;4.57;;
12956;SDS011;6543;48.836;10.092;2023-03-26T04:20:40;12.77;;;4.57;;
12956;SDS011;6543;48.836;10.092;2023-03-26T04:23:10;16.17;;;4.63;;
12956;SDS011;6543;48.836;10.092;2023-03-26T04:25:38;14.57;;;5.43;;
12956;SDS011;6543;48.836;10.092;2023-03-26T04:28:06;12.60;;;7.00;;
12956;SDS011;6543;48.836;10.092;2023-03-26T04:30:37;16.97;;;10.20;;
12956;SDS011;6543;48.836;10.092;2023-03-26T04:33:07;21.23;;;12.30;;
12956;SDS011;6543;48.836;10.092;2023-03-26T04:35:39;21.60;;;11.23;;
12956;SDS011;6543;48.836;10.092;2023-03-26T04:38:08;17.37;;;8.27;;
12956;SDS011;6543;48.836;10.092;2023-03-26T04:40:36;20.87;;;8.00;;
12956;SDS011;6543;48.836;10.092;2023-03-26T04:43:03;7.07;;;3.47;;
12956;SDS011;6543;48.836;10.092;2023-03-26T04:45:30;7.13;;;2.53;;
12956;SDS011;6543;48.836;10.092;2023-03-26T04:47:58;9.00;;;2.80;;
12956;SDS011;6543;48.836;10.092;2023-03-26T04:50:26;6.57;;;1.83;;
12956;SDS011;6543;48.836;10.092;2023-03-26T04:52:53;4.83;;;1.80;;
12956;SDS011;6543;48.836;10.092;2023-03-26T04:55:23;5.37;;;1.50;;
12956;SDS011;6543;48.836;10.092;2023-03-26T04:57:54;4.27;;;1.20;;
12956;SDS011;6543;48.836;10.092;2023-03-26T05:00:24;6.53;;;1.20;;
12956;SDS011;6543;48.836;10.092;2023-03-26T05:02:52;5.67;;;1.50;;
12956;SDS011;6543;48.836;10.092;2023-03-26T05:05:23;4.70;;;1.40;;
12956;SDS011;6543;48.836;10.092;2023-03-26T05:07:51;5.27;;;1.60;;
12956;SDS011;6543;48.836;10.092;2023-03-26T05:10:18;6.47;;;1.70;;
12956;SDS011;6543;48.836;10.092;2023-03-26T05:12:45;3.50;;;1.37;;
12956;SDS011;6543;48.836;10.092;2023-03-26T05:15:13;4.00;;;1.47;;
12956;SDS011;6543;48.836;10.092;2023-03-26T05:17:40;8.87;;;1.87;;
12956;SDS011;6543;48.836;10.092;2023-03-26T05:20:13;4.17;;;1.50;;
12956;SDS011;6543;48.836;10.092;2023-03-26T05:22:46;7.17;;;1.57;;
12956;SDS011;6543;48.836;10.092;2023-03-26T05:25:14;4.77;;;1.37;;
12956;SDS011;6543;48.836;10.092;2023-03-26T05:27:41;9.73;;;2.30;;
12956;SDS011;6543;48.836;10.092;2023-03-26T05:30:09;5.63;;;1.17;;
12956;SDS011;6543;48.836;10.092;2023-03-26T05:32:39;6.03;;;1.07;;
12956;SDS011;6543;48.836;10.092;2023-03-26T05:35:07;6.00;;;1.23;;
12956;SDS011;6543;48.836;10.092;2023-03-26T05:37:34;4.23;;;1.43;;
12956;SDS011;6543;48.836;10.092;2023-03-26T05:40:05;3.20;;;1.20;;
12956;SDS011;6543;48.836;10.092;2023-03-26T05:42:36;7.40;;;1.37;;
12956;SDS011;6543;48.836;10.092;2023-03-26T05:45:03;6.80;;;1.73;;
12956;SDS011;6543;48.836;10.092;2023-03-26T05:47:31;4.27;;;1.53;;
12956;SDS011;6543;48.836;10.092;2023-03-26T05:49:58;7.57;;;2.10;;
12956;SDS011;6543;48.836;10.092;2023-03-26T05:52:25;8.20;;;1.80;;
12956;SDS011;6543;48.836;10.092;2023-03-26T05:54:52;7.00;;;1.60;;
12956;SDS011;6543;48.836;10.092;2023-03-26T05:57:20;4.00;;;1.80;;
12956;SDS011;6543;48.836;10.092;2023-03-26T05:59:48;5.53;;;1.33;;
12956;SDS011;6543;48.836;10.092;2023-03-26T06:02:15;4.37;;;1.60;;
12956;SDS011;6543;48.836;10.092;2023-03-26T06:04:41;3.60;;;0.90;;
12956;SDS011;6543;48.836;10.092;2023-03-26T06:07:09;5.67;;;1.40;;
12956;SDS011;6543;48.836;10.092;2023-03-26T06:09:37;3.63;;;1.37;;
12956;SDS011;6543;48.836;10.092;2023-03-26T06:12:05;2.90;;;1.20;;
12956;SDS011;6543;48.836;10.092;2023-03-26T06:14:34;5.03;;;1.33;;
12956;SDS011;6543;48.836;10.092;2023-03-26T06:17:01;5.13;;;1.00;;
12956;SDS011;6543;48.836;10.092;2023-03-26T06:19:29;3.40;;;1.37;;
12956;SDS011;6543;48.836;10.092;2023-03-26T06:21:55;4.73;;;1.37;;
12956;SDS011;6543;48.836;10.092;2023-03-26T06:24:22;3.70;;;1.57;;
12956;SDS011;6543;48.836;10.092;2023-03-26T06:26:49;5.10;;;1.90;;
12956;SDS011;6543;48.836;10.092;2023-03-26T06:29:16;5.53;;;1.50;;
12956;SDS011;6543;48.836;10.092;2023-03-26T06:31:45;5.07;;;1.40;;
12956;SDS011;6543;48.836;10.092;2023-03-26T06:34:12;7.97;;;2.20;;
12956;SDS011;6543;48.836;10.092;2023-03-26T06:36:39;5.90;;;1.80;;
12956;SDS011;6543;48.836;10.092;2023-03-26T06:39:06;5.77;;;1.93;;
12956;SDS011;6543;48.836;10.092;2023-03-26T06:41:33;7.90;;;2.00;;
12956;SDS011;6543;48.836;10.092;2023-03-26T06:44:00;7.70;;;1.80;;
12956;SDS011;6543;48.836;10.092;2023-03-26T06:46:26;7.87;;;1.90;;
12956;SDS011;6543;48.836;10.092;2023-03-26T06:48:55;3.97;;;1.90;;
12956;SDS011;6543;48.836;10.092;2023-03-26T06:51:22;7.70;;;1.90;;
12956;SDS011;6543;48.836;10.092;2023-03-26T06:53:48;4.67;;;1.87;;
12956;SDS011;6543;48.836;10.092;2023-03-26T06:56:15;4.37;;;1.43;;
12956;SDS011;6543;48.836;10.092;2023-03-26T06:58:42;6.47;;;2.20;;
12956;SDS011;6543;48.836;10.092;2023-03-26T07:01:09;7.70;;;2.07;;
12956;SDS011;6543;48.836;10.092;2023-03-26T07:03:36;5.83;;;2.17;;
12956;SDS011;6543;48.836;10.092;2023-03-26T07:06:05;5.27;;;2.60;;
12956;SDS011;6543;48.836;10.092;2023-03-26T07:08:32;8.90;;;2.40;;
12956;SDS011;6543;48.836;10.092;2023-03-26T07:10:59;6.33;;;2.30;;
12956;SDS011;6543;48.836;10.092;2023-03-26T07:13:26;5.70;;;1.80;;
12956;SDS011;6543;48.836;10.092;2023-03-26T07:15:52;6.47;;;2.20;;
12956;SDS011;6543;48.836;10.092;2023-03-26T07:18:19;4.53;;;1.60;;
12956;SDS011;6543;48.836;10.092;2023-03-26T07:20:46;3.73;;;1.90;;
12956;SDS011;6543;48.836;10.092;2023-03-26T07:23:15;6.67;;;1.60;;
12956;SDS011;6543;48.836;10.092;2023-03-26T07:25:44;6.00;;;1.30;;
12956;SDS011;6543;48.836;10.092;2023-03-26T07:28:12;6.17;;;1.73;;
12956;SDS011;6543;48.836;10.092;2023-03-26T07:30:51;5.67;;;1.57;;
12956;SDS011;6543;48.836;10.092;2023-03-26T07:33:26;7.00;;;1.63;;
12956;SDS011;6543;48.836;10.092;2023-03-26T07:36:02;3.20;;;1.60;;
12956;SDS011;6543;48.836;10.092;2023-03-26T07:38:50;13.93;;;1.90;;
12956;SDS011;6543;48.836;10.092;2023-03-26T07:41:29;5.03;;;1.67;;
12956;SDS011;6543;48.836;10.092;2023-03-26T07:44:10;7.17;;;2.30;;
12956;SDS011;6543;48.836;10.092;2023-03-26T07:46:51;5.40;;;1.90;;
12956;SDS011;6543;48.836;10.092;2023-03-26T07:49:19;5.90;;;2.47;;
12956;SDS011;6543;48.836;10.092;2023-03-26T07:51:47;5.67;;;2.10;;
12956;SDS011;6543;48.836;10.092;2023-03-26T07:54:16;3.70;;;1.80;;
12956;SDS011;6543;48.836;10.092;2023-03-26T07:56:44;6.57;;;1.70;;
12956;SDS011;6543;48.836;10.092;2023-03-26T07:59:20;7.60;;;1.97;;
12956;SDS011;6543;48.836;10.092;2023-03-26T08:01:55;4.37;;;1.50;;
12956;SDS011;6543;48.836;10.092;2023-03-26T08:04:44;5.17;;;1.73;;
12956;SDS011;6543;48.836;10.092;2023-03-26T08:07:21;7.83;;;1.57;;
12956;SDS011;6543;48.836;10.092;2023-03-26T08:10:02;3.40;;;1.50;;
12956;SDS011;6543;48.836;10.092;2023-03-26T08:12:40;3.80;;;1.87;;
12956;SDS011;6543;48.836;10.092;2023-03-26T08:15:15;5.77;;;2.50;;
12956;SDS011;6543;48.836;10.092;2023-03-26T08:17:47;5.10;;;1.77;;
12956;SDS011;6543;48.836;10.092;2023-03-26T08:20:26;10.30;;;2.13;;
12956;SDS011;6543;48.836;10.092;2023-03-26T08:23:01;8.63;;;2.03;;
12956;SDS011;6543;48.836;10.092;2023-03-26T08:25:37;6.43;;;1.80;;
12956;SDS011;6543;48.836;10.092;2023-03-26T08:28:17;3.60;;;1.47;;
12956;SDS011;6543;48.836;10.092;2023-03-26T08:30:59;5.27;;;2.07;;
12956;SDS011;6543;48.836;10.092;2023-03-26T08:33:30;4.77;;;2.57;;
12956;SDS011;6543;48.836;10.092;2023-03-26T08:35:58;6.00;;;2.03;;
12956;SDS011;6543;48.836;10.092;2023-03-26T08:38:38;5.37;;;1.50;;
12956;SDS011;6543;48.836;10.092;2023-03-26T08:48:02;6.53;;;2.37;;
12956;SDS011;6543;48.836;10.092;2023-03-26T08:50:45;4.77;;;2.00;;
12956;SDS011;6543;48.836;10.092;2023-03-26T08:53:41;5.53;;;1.60;;
12956;SDS011;6543;48.836;10.092;2023-03-26T08:56:31;7.23;;;2.07;;
12956;SDS011;6543;48.836;10.092;2023-03-26T09:02:38;6.87;;;2.20;;
12956;SDS011;6543;48.836;10.092;2023-03-26T09:05:40;5.77;;;2.20;;
12956;SDS011;6543;48.836;10.092;2023-03-26T09:08:56;6.40;;;2.10;;
12956;SDS011;6543;48.836;10.092;2023-03-26T09:11:59;6.10;;;1.83;;
12956;SDS011;6543;48.836;10.092;2023-03-26T09:18:06;4.60;;;1.60;;
12956;SDS011;6543;48.836;10.092;2023-03-26T09:24:06;8.90;;;2.37;;
12956;SDS011;6543;48.836;10.092;2023-03-26T09:26:57;4.73;;;1.90;;
12956;SDS011;6543;48.836;10.092;2023-03-26T09:29:40;5.67;;;1.90;;
12956;SDS011;6543;48.836;10.092;2023-03-26T09:33:01;2.43;;;1.20;;
12956;SDS011;6543;48.836;10.092;2023-03-26T09:35:50;6.20;;;1.63;;
12956;SDS011;6543;48.836;10.092;2023-03-26T09:38:40;3.87;;;1.90;;
12956;SDS011;6543;48.836;10.092;2023-03-26T09:41:14;9.87;;;1.30;;
12956;SDS011;6543;48.836;10.092;2023-03-26T09:43:53;3.37;;;1.60;;
12956;SDS011;6543;48.836;10.092;2023-03-26T09:46:36;5.70;;;1.97;;
12956;SDS011;6543;48.836;10.092;2023-03-26T09:49:13;2.43;;;1.10;;
12956;SDS011;6543;48.836;10.092;2023-03-26T09:55:03;2.63;;;1.70;;
12956;SDS011;6543;48.836;10.092;2023-03-26T09:57:58;5.10;;;1.40;;
12956;SDS011;6543;48.836;10.092;2023-03-26T10:00:40;5.00;;;1.40;;
12956;SDS011;6543;48.836;10.092;2023-03-26T10:03:17;2.83;;;1.33;;
12956;SDS011;6543;48.836;10.092;2023-03-26T10:06:01;3.87;;;1.60;;
12956;SDS011;6543;48.836;10.092;2023-03-26T10:08:43;2.80;;;1.30;;
12956;SDS011;6543;48.836;10.092;2023-03-26T10:11:30;6.83;;;1.57;;
12956;SDS011;6543;48.836;10.092;2023-03-26T10:14:11;3.67;;;1.40;;
12956;SDS011;6543;48.836;10.092;2023-03-26T10:16:48;2.83;;;1.27;;
12956;SDS011;6543;48.836;10.092;2023-03-26T10:19:30;3.27;;;1.13;;
12956;SDS011;6543;48.836;10.092;2023-03-26T10:22:10;4.57;;;1.50;;
12956;SDS011;6543;48.836;10.092;2023-03-26T10:24:53;2.30;;;1.23;;
12956;SDS011;6543;48.836;10.092;2023-03-26T10:27:42;4.77;;;1.87;;
12956;SDS011;6543;48.836;10.092;2023-03-26T10:33:20;2.53;;;1.10;;
12956;SDS011;6543;48.836;10.092;2023-03-26T10:35:58;2.57;;;1.03;;
12956;SDS011;6543;48.836;10.092;2023-03-26T10:38:43;2.43;;;1.10;;
12956;SDS011;6543;48.836;10.092;2023-03-26T10:41:20;2.60;;;1.10;;
12956;SDS011;6543;48.836;10.092;2023-03-26T10:44:08;2.43;;;1.37;;
12956;SDS011;6543;48.836;10.092;2023-03-26T10:50:10;3.20;;;1.50;;
12956;SDS011;6543;48.836;10.092;2023-03-26T10:52:53;1.27;;;0.83;;
12956;SDS011;6543;48.836;10.092;2023-03-26T10:55:24;1.07;;;0.77;;
12956;SDS011;6543;48.836;10.092;2023-03-26T10:57:56;2.07;;;1.37;;
12956;SDS011;6543;48.836;10.092;2023-03-26T11:00:26;2.47;;;1.40;;
12956;SDS011;6543;48.836;10.092;2023-03-26T11:05:54;1.90;;;1.40;;
12956;SDS011;6543;48.836;10.092;2023-03-26T11:08:28;0.83;;;0.50;;
12956;SDS011;6543;48.836;10.092;2023-03-26T11:11:07;2.93;;;1.00;;
12956;SDS011;6543;48.836;10.092;2023-03-26T11:13:45;0.37;;;0.37;;
12956;SDS011;6543;48.836;10.092;2023-03-26T11:16:20;1.60;;;0.90;;
12956;SDS011;6543;48.836;10.092;2023-03-26T11:18:56;2.27;;;0.90;;
12956;SDS011;6543;48.836;10.092;2023-03-26T11:21:27;2.23;;;1.00;;
12956;SDS011;6543;48.836;10.092;2023-03-26T11:24:03;1.43;;;0.90;;
12956;SDS011;6543;48.836;10.092;2023-03-26T11:26:47;1.10;;;0.73;;
12956;SDS011;6543;48.836;10.092;2023-03-26T11:29:23;1.63;;;1.00;;
12956;SDS011;6543;48.836;10.092;2023-03-26T11:32:04;2.87;;;0.93;;
12956;SDS011;6543;48.836;10.092;2023-03-26T11:34:38;3.90;;;1.87;;
12956;SDS011;6543;48.836;10.092;2023-03-26T11:37:11;3.23;;;1.17;;
12956;SDS011;6543;48.836;10.092;2023-03-26T11:39:46;1.70;;;1.07;;
12956;SDS011;6543;48.836;10.092;2023-03-26T11:42:16;1.40;;;0.90;;
12956;SDS011;6543;48.836;10.092;2023-03-26T11:44:49;3.03;;;0.90;;
12956;SDS011;6543;48.836;10.092;2023-03-26T11:47:20;1.87;;;1.00;;
12956;SDS011;6543;48.836;10.092;2023-03-26T11:49:54;3.70;;;1.27;;
12956;SDS011;6543;48.836;10.092;2023-03-26T11:52:31;1.03;;;0.77;;
12956;SDS011;6543;48.836;10.092;2023-03-26T11:55:01;2.83;;;1.37;;
12956;SDS011;6543;48.836;10.092;2023-03-26T11:57:34;3.40;;;1.10;;
12956;SDS011;6543;48.836;10.092;2023-03-26T12:00:07;5.23;;;1.17;;
12956;SDS011;6543;48.836;10.092;2023-03-26T12:02:42;3.87;;;1.90;;
12956;SDS011;6543;48.836;10.092;2023-03-26T12:05:15;3.17;;;1.73;;
12956;SDS011;6543;48.836;10.092;2023-03-26T12:07:53;1.77;;;0.93;;
12956;SDS011;6543;48.836;10.092;2023-03-26T12:10:23;2.83;;;1.50;;
12956;SDS011;6543;48.836;10.092;2023-03-26T12:12:56;4.63;;;0.77;;
12956;SDS011;6543;48.836;10.092;2023-03-26T12:15:30;2.13;;;1.03;;
12956;SDS011;6543;48.836;10.092;2023-03-26T12:18:16;2.40;;;0.80;;
12956;SDS011;6543;48.836;10.092;2023-03-26T12:21:05;1.60;;;0.80;;
12956;SDS011;6543;48.836;10.092;2023-03-26T12:26:30;1.30;;;0.63;;
12956;SDS011;6543;48.836;10.092;2023-03-26T12:29:05;1.73;;;0.60;;
12956;SDS011;6543;48.836;10.092;2023-03-26T12:31:51;0.93;;;0.70;;
12956;SDS011;6543;48.836;10.092;2023-03-26T12:34:21;0.70;;;0.70;;
12956;SDS011;6543;48.836;10.092;2023-03-26T12:36:56;1.27;;;0.60;;
12956;SDS011;6543;48.836;10.092;2023-03-26T12:39:26;1.33;;;0.60;;
12956;SDS011;6543;48.836;10.092;2023-03-26T12:41:58;1.77;;;0.70;;
12956;SDS011;6543;48.836;10.092;2023-03-26T12:44:30;2.20;;;1.00;;
12956;SDS011;6543;48.836;10.092;2023-03-26T12:47:09;2.77;;;1.10;;
12956;SDS011;6543;48.836;10.092;2023-03-26T12:49:44;2.20;;;0.90;;
12956;SDS011;6543;48.836;10.092;2023-03-26T12:52:17;3.77;;;1.07;;
12956;SDS011;6543;48.836;10.092;2023-03-26T12:55:05;0.90;;;0.70;;
12956;SDS011;6543;48.836;10.092;2023-03-26T12:57:47;1.87;;;0.97;;
12956;SDS011;6543;48.836;10.092;2023-03-26T13:00:27;1.30;;;0.73;;
12956;SDS011;6543;48.836;10.092;2023-03-26T13:06:04;1.67;;;1.07;;
12956;SDS011;6543;48.836;10.092;2023-03-26T13:08:53;0.53;;;0.53;;
12956;SDS011;6543;48.836;10.092;2023-03-26T13:11:39;1.87;;;0.57;;
12956;SDS011;6543;48.836;10.092;2023-03-26T13:14:22;1.03;;;0.73;;
12956;SDS011;6543;48.836;10.092;2023-03-26T13:17:00;1.37;;;0.80;;
12956;SDS011;6543;48.836;10.092;2023-03-26T13:19:35;2.23;;;0.73;;
12956;SDS011;6543;48.836;10.092;2023-03-26T13:22:13;2.77;;;0.90;;
12956;SDS011;6543;48.836;10.092;2023-03-26T13:24:51;0.93;;;0.70;;
12956;SDS011;6543;48.836;10.092;2023-03-26T13:27:28;4.73;;;0.87;;
12956;SDS011;6543;48.836;10.092;2023-03-26T13:30:10;3.57;;;1.27;;
12956;SDS011;6543;48.836;10.092;2023-03-26T13:32:46;2.60;;;0.70;;
12956;SDS011;6543;48.836;10.092;2023-03-26T13:35:26;5.27;;;1.07;;
12956;SDS011;6543;48.836;10.092;2023-03-26T13:37:57;2.13;;;0.93;;
12956;SDS011;6543;48.836;10.092;2023-03-26T13:40:33;6.77;;;1.00;;
12956;SDS011;6543;48.836;10.092;2023-03-26T13:43:20;0.87;;;0.80;;
12956;SDS011;6543;48.836;10.092;2023-03-26T13:45:57;1.83;;;0.70;;
12956;SDS011;6543;48.836;10.092;2023-03-26T13:48:31;3.00;;;0.80;;
12956;SDS011;6543;48.836;10.092;2023-03-26T13:51:03;0.60;;;0.50;;
12956;SDS011;6543;48.836;10.092;2023-03-26T13:53:38;3.00;;;0.50;;
12956;SDS011;6543;48.836;10.092;2023-03-26T13:56:10;3.27;;;0.80;;
12956;SDS011;6543;48.836;10.092;2023-03-26T13:58:42;2.77;;;0.90;;
12956;SDS011;6543;48.836;10.092;2023-03-26T14:01:13;1.93;;;0.73;;
12956;SDS011;6543;48.836;10.092;2023-03-26T14:03:47;2.00;;;0.90;;
12956;SDS011;6543;48.836;10.092;2023-03-26T14:09:09;2.07;;;0.97;;
12956;SDS011;6543;48.836;10.092;2023-03-26T14:11:46;3.37;;;1.00;;
12956;SDS011;6543;48.836;10.092;2023-03-26T14:14:22;2.67;;;1.17;;
12956;SDS011;6543;48.836;10.092;2023-03-26T14:16:57;1.30;;;0.80;;
12956;SDS011;6543;48.836;10.092;2023-03-26T14:19:37;1.13;;;0.70;;
12956;SDS011;6543;48.836;10.092;2023-03-26T14:22:24;3.17;;;0.90;;
12956;SDS011;6543;48.836;10.092;2023-03-26T14:25:07;4.53;;;1.00;;
12956;SDS011;6543;48.836;10.092;2023-03-26T14:27:49;1.20;;;0.57;;
12956;SDS011;6543;48.836;10.092;2023-03-26T14:30:38;1.97;;;0.90;;
12956;SDS011;6543;48.836;10.092;2023-03-26T14:36:26;1.67;;;0.87;;
12956;SDS011;6543;48.836;10.092;2023-03-26T14:39:23;5.27;;;1.33;;
12956;SDS011;6543;48.836;10.092;2023-03-26T14:42:06;0.97;;;0.83;;
12956;SDS011;6543;48.836;10.092;2023-03-26T14:44:46;1.37;;;0.93;;
12956;SDS011;6543;48.836;10.092;2023-03-26T14:47:30;2.87;;;0.80;;
12956;SDS011;6543;48.836;10.092;2023-03-26T14:53:01;2.63;;;1.00;;
12956;SDS011;6543;48.836;10.092;2023-03-26T14:55:41;4.47;;;1.23;;
12956;SDS011;6543;48.836;10.092;2023-03-26T15:01:42;0.90;;;0.80;;
12956;SDS011;6543;48.836;10.092;2023-03-26T15:07:46;2.77;;;1.00;;
12956;SDS011;6543;48.836;10.092;2023-03-26T15:13:22;2.07;;;0.77;;
12956;SDS011;6543;48.836;10.092;2023-03-26T15:16:22;1.70;;;0.80;;
12956;SDS011;6543;48.836;10.092;2023-03-26T15:28:17;3.43;;;1.30;;
12956;SDS011;6543;48.836;10.092;2023-03-26T15:34:03;1.93;;;0.83;;
12956;SDS011;6543;48.836;10.092;2023-03-26T15:43:08;2.07;;;0.90;;
12956;SDS011;6543;48.836;10.092;2023-03-26T15:45:37;1.90;;;1.00;;
12956;SDS011;6543;48.836;10.092;2023-03-26T15:48:19;2.63;;;1.00;;
12956;SDS011;6543;48.836;10.092;2023-03-26T15:51:00;2.60;;;1.03;;
12956;SDS011;6543;48.836;10.092;2023-03-26T15:53:46;2.43;;;0.70;;
12956;SDS011;6543;48.836;10.092;2023-03-26T15:56:25;2.60;;;0.80;;
12956;SDS011;6543;48.836;10.092;2023-03-26T15:59:07;2.40;;;0.70;;
12956;SDS011;6543;48.836;10.092;2023-03-26T16:01:49;4.57;;;0.50;;
12956;SDS011;6543;48.836;10.092;2023-03-26T16:04:33;2.73;;;0.93;;
12956;SDS011;6543;48.836;10.092;2023-03-26T16:07:21;0.87;;;0.83;;
12956;SDS011;6543;48.836;10.092;2023-03-26T16:09:57;4.03;;;0.70;;
12956;SDS011;6543;48.836;10.092;2023-03-26T16:12:46;2.70;;;0.70;;
12956;SDS011;6543;48.836;10.092;2023-03-26T16:15:24;2.50;;;0.87;;
12956;SDS011;6543;48.836;10.092;2023-03-26T16:21:00;3.53;;;0.90;;
12956;SDS011;6543;48.836;10.092;2023-03-26T16:23:31;3.13;;;1.10;;
12956;SDS011;6543;48.836;10.092;2023-03-26T16:26:10;2.70;;;1.30;;
12956;SDS011;6543;48.836;10.092;2023-03-26T16:34:45;3.10;;;1.17;;
12956;SDS011;6543;48.836;10.092;2023-03-26T16:37:36;2.33;;;1.27;;
12956;SDS011;6543;48.836;10.092;2023-03-26T16:46:07;2.60;;;1.53;;
12956;SDS011;6543;48.836;10.092;2023-03-26T16:48:47;6.03;;;1.53;;
12956;SDS011;6543;48.836;10.092;2023-03-26T16:51:21;2.10;;;1.13;;
12956;SDS011;6543;48.836;10.092;2023-03-26T16:53:53;4.60;;;1.87;;
12956;SDS011;6543;48.836;10.092;2023-03-26T16:56:32;2.20;;;1.27;;